Time;durP1;ratioP1;P1;durP2;ratioP2;P2;SDS_P1;SDS_P2;PMS_P1;PMS_P2;Temp;Humidity;BMP_temperature;BMP_pressure;BME280_temperature;BME280_humidity;BME280_pressure;Samples;Min_cycle;Max_cycle;Signal;HPM_P1;HPM_P2
2022/06/20 00:02:21;;;;;;;3.17;2.70;;;;;;;17.54;58.08;96704.38;1661078;84;25870;-77
2022/06/20 00:04:50;;;;;;;6.10;2.77;;;;;;;17.62;58.03;96704.39;1649270;83;25831;-79
2022/06/20 00:07:18;;;;;;;4.75;2.58;;;;;;;17.69;58.02;96700.05;1668181;83;25949;-82
2022/06/20 00:09:45;;;;;;;6.90;2.70;;;;;;;17.69;57.68;96697.31;1657326;83;25553;-80
2022/06/20 00:12:24;;;;;;;5.70;2.83;;;;;;;17.71;57.55;96704.14;1676884;83;27594;-77
2022/06/20 00:14:58;;;;;;;4.90;2.87;;;;;;;17.72;57.64;96703.05;1666150;83;25570;-80
2022/06/20 00:17:25;;;;;;;3.60;2.77;;;;;;;17.77;57.78;96704.94;1666646;84;25923;-78
2022/06/20 00:19:53;;;;;;;2.90;2.47;;;;;;;17.76;57.48;96692.39;1645291;86;25966;-81
2022/06/20 00:22:20;;;;;;;3.77;2.92;;;;;;;17.80;57.45;96707.13;1625717;87;25720;-79
2022/06/20 00:24:46;;;;;;;4.55;2.72;;;;;;;17.76;57.49;96684.20;1683487;84;26853;-79
2022/06/20 00:27:13;;;;;;;3.02;2.70;;;;;;;17.77;57.39;96700.84;1668750;84;26302;-81
2022/06/20 00:29:42;;;;;;;7.45;2.52;;;;;;;17.75;57.30;96691.56;1669251;84;25757;-79
2022/06/20 00:32:10;;;;;;;3.20;2.47;;;;;;;17.77;57.17;96697.58;1669597;84;25752;-78
2022/06/20 00:34:37;;;;;;;3.90;2.70;;;;;;;17.75;57.32;96708.52;1663780;84;25840;-79
2022/06/20 00:37:06;;;;;;;3.27;2.70;;;;;;;17.77;57.22;96704.94;1722027;80;27459;-79
2022/06/20 00:39:33;;;;;;;3.47;2.70;;;;;;;17.80;57.32;96704.41;1763624;80;25877;-78
2022/06/20 00:42:02;;;;;;;2.45;2.25;;;;;;;17.82;57.28;96704.41;1742306;80;26451;-82
2022/06/20 00:44:36;;;;;;;4.75;2.70;;;;;;;17.84;57.08;96695.95;1756261;80;25916;-79
2022/06/20 00:47:07;;;;;;;5.70;2.65;;;;;;;17.84;56.79;96700.05;1747074;80;25812;-78
2022/06/20 00:49:48;;;;;;;3.45;2.60;;;;;;;17.88;56.65;96693.73;1763354;80;28197;-79
2022/06/20 00:52:28;;;;;;;6.62;2.80;;;;;;;17.91;56.67;96706.03;1705024;83;25363;-78
2022/06/20 00:55:05;;;;;;;3.05;2.20;;;;;;;17.93;56.46;96701.94;1682062;82;25834;-80
2022/06/20 00:57:42;;;;;;;2.80;2.60;;;;;;;17.92;56.19;96704.39;1673094;82;26325;-82
2022/06/20 01:00:20;;;;;;;3.90;2.35;;;;;;;17.96;56.24;96697.30;1694695;82;26767;-80
2022/06/20 01:02:51;;;;;;;2.83;2.17;;;;;;;17.98;56.01;96693.75;1598234;87;27502;-80
2022/06/20 01:05:37;;;;;;;5.25;2.67;;;;;;;18.06;55.99;96699.19;1575701;89;26197;-78
2022/06/20 01:08:09;;;;;;;3.75;2.50;;;;;;;18.08;56.00;96698.37;1575699;89;26022;-81
2022/06/20 01:11:13;;;;;;;4.00;2.12;;;;;;;18.06;55.97;96696.45;1572204;90;26520;-78
2022/06/20 01:13:39;;;;;;;4.25;2.08;;;;;;;18.06;55.97;96696.45;1580941;88;25875;-78
2022/06/20 01:16:17;;;;;;;2.62;2.22;;;;;;;18.03;55.78;96694.27;1611099;88;28019;-82
2022/06/20 01:18:47;;;;;;;2.87;2.50;;;;;;;18.06;55.63;96703.28;1606378;88;25924;-80
2022/06/20 01:21:24;;;;;;;4.55;2.42;;;;;;;18.11;55.47;96695.09;1603427;88;25929;-81
2022/06/20 01:24:07;;;;;;;6.47;2.52;;;;;;;18.16;55.32;96696.43;1559563;90;25861;-79
2022/06/20 01:27:11;;;;;;;5.28;2.30;;;;;;;18.19;54.88;96691.79;1529115;91;25805;-78
2022/06/20 01:29:38;;;;;;;3.33;2.40;;;;;;;18.28;54.77;96698.31;1529321;92;27447;-78
2022/06/20 01:32:05;;;;;;;7.72;2.40;;;;;;;18.33;54.70;96681.92;1576501;89;25508;-78
2022/06/20 01:34:33;;;;;;;3.35;2.25;;;;;;;18.35;54.62;96675.60;1577272;89;25863;-80
2022/06/20 01:42:20;;;;;;;2.60;2.20;;;;;;;18.55;53.99;96668.45;1563925;90;28479;-78
2022/06/20 01:45:01;;;;;;;4.95;2.20;;;;;;;18.56;54.02;96670.08;1565076;90;25911;-78
2022/06/20 01:47:28;;;;;;;2.12;1.92;;;;;;;18.53;53.92;96669.27;1548158;91;25823;-77
2022/06/20 01:50:00;;;;;;;2.92;2.37;;;;;;;18.46;53.96;96678.33;1547787;91;25959;-79
2022/06/20 01:52:34;;;;;;;3.75;2.05;;;;;;;18.41;53.93;96679.15;1545229;91;25909;-80
2022/06/20 01:55:18;;;;;;;3.08;2.00;;;;;;;18.39;53.87;96675.05;1541758;92;28514;-78
2022/06/20 01:57:49;;;;;;;4.15;2.22;;;;;;;18.41;53.77;96669.59;1547463;92;25580;-78
2022/06/20 02:00:22;;;;;;;2.90;2.40;;;;;;;18.44;53.72;96669.58;1543084;92;25343;-78
2022/06/20 02:02:54;;;;;;;2.72;1.87;;;;;;;18.43;53.76;96670.68;1528952;92;25895;-78
2022/06/20 02:05:26;;;;;;;3.40;2.10;;;;;;;18.39;53.99;96672.32;1521583;93;25870;-78
2022/06/20 02:08:00;;;;;;;4.17;2.65;;;;;;;18.34;54.00;96669.89;1520428;93;28126;-78
2022/06/20 02:10:38;;;;;;;3.17;2.42;;;;;;;18.31;54.09;96669.08;1520484;93;25824;-78
2022/06/20 02:13:04;;;;;;;3.95;2.00;;;;;;;18.23;54.15;96676.46;1468065;96;26009;-77
2022/06/20 02:15:32;;;;;;;2.33;1.98;;;;;;;18.14;54.11;96680.05;1472838;96;25901;-77
2022/06/20 02:18:02;;;;;;;2.30;2.10;;;;;;;18.06;54.21;96680.08;1472643;96;25986;-81
2022/06/20 02:20:34;;;;;;;4.25;2.27;;;;;;;18.00;54.33;96678.42;1476423;96;27671;-77
2022/06/20 02:23:02;;;;;;;7.93;2.73;;;;;;;17.99;54.28;96679.55;1456646;96;26147;-78
2022/06/20 02:25:32;;;;;;;5.42;2.25;;;;;;;18.01;54.31;96675.97;1472462;95;25940;-77
2022/06/20 02:28:04;;;;;;;4.58;2.40;;;;;;;18.04;54.37;96675.43;1476964;95;25901;-78
2022/06/20 02:30:31;;;;;;;2.83;2.27;;;;;;;18.07;54.47;96674.88;1434682;99;25963;-78
2022/06/20 02:33:25;;;;;;;5.92;2.27;;;;;;;18.05;54.65;96674.34;1432558;98;28329;-78
2022/06/20 02:35:54;;;;;;;2.92;2.37;;;;;;;18.03;54.75;96675.70;1434159;98;26231;-78
2022/06/20 02:38:21;;;;;;;2.67;2.20;;;;;;;17.97;54.82;96680.38;1435088;98;26003;-81
2022/06/20 02:40:55;;;;;;;4.30;2.15;;;;;;;17.94;54.89;96679.55;1446550;98;26358;-79
2022/06/20 02:43:46;;;;;;;3.27;2.40;;;;;;;17.86;54.90;96675.48;1466585;95;26053;-79
2022/06/20 02:46:17;;;;;;;5.15;2.37;;;;;;;17.77;55.01;96676.28;1408456;100;28276;-78
2022/06/20 02:48:48;;;;;;;2.98;2.37;;;;;;;17.63;55.17;96667.28;1417747;99;25852;-78
2022/06/20 02:51:20;;;;;;;5.12;2.42;;;;;;;17.61;55.28;96673.55;1458004;97;26478;-77
2022/06/20 02:53:58;;;;;;;;;;;;;;;17.62;55.51;96670.28;1455461;97;25830;-78
2022/06/20 02:56:29;;;;;;;5.03;2.75;;;;;;;17.58;55.76;96665.09;1458134;96;25832;-80
2022/06/20 02:59:03;;;;;;;7.42;2.92;;;;;;;17.55;55.57;96674.63;1460189;96;27544;-79
2022/06/20 03:02:01;;;;;;;3.72;2.35;;;;;;;17.55;55.70;96676.00;1465125;96;25902;-77
2022/06/20 03:04:27;;;;;;;3.95;2.40;;;;;;;17.49;55.76;96680.38;1474519;95;25949;-77
2022/06/20 03:06:59;;;;;;;3.98;2.08;;;;;;;17.45;56.02;96667.81;1472128;96;25874;-78
2022/06/20 03:09:34;;;;;;;4.83;2.60;;;;;;;17.40;55.96;96665.08;1463371;93;33515;-77
2022/06/20 03:12:04;;;;;;;5.62;2.60;;;;;;;17.41;56.05;96659.89;1473489;95;27632;-79
2022/06/20 03:14:53;;;;;;;3.67;2.80;;;;;;;17.43;56.12;96671.36;1461500;96;25823;-78
2022/06/20 03:17:23;;;;;;;4.92;2.80;;;;;;;17.46;56.20;96662.64;1423317;99;26991;-77
2022/06/20 03:19:54;;;;;;;6.28;2.50;;;;;;;17.48;56.30;96662.37;1453165;97;25930;-78
2022/06/20 03:22:26;;;;;;;5.60;2.55;;;;;;;17.47;56.46;96661.55;1449132;95;25630;-78
2022/06/20 03:24:53;;;;;;;5.72;2.75;;;;;;;17.45;56.49;96665.09;1456606;96;27013;-78
2022/06/20 03:27:28;;;;;;;4.87;2.50;;;;;;;17.44;56.65;96666.17;1474783;95;25891;-79
2022/06/20 03:29:59;;;;;;;12.47;3.12;;;;;;;17.43;56.79;96664.54;1461298;97;26822;-76
2022/06/20 03:32:26;;;;;;;6.58;2.70;;;;;;;17.45;56.95;96666.45;1428828;100;25875;-78
2022/06/20 03:34:54;;;;;;;3.25;2.42;;;;;;;17.45;56.90;96658.27;1428236;100;26012;-78
2022/06/20 03:37:22;;;;;;;3.77;2.60;;;;;;;17.47;56.95;96650.63;1428501;100;27487;-78
2022/06/20 03:39:50;;;;;;;4.45;2.25;;;;;;;17.48;57.02;96652.27;1428563;100;25827;-79
2022/06/20 03:42:17;;;;;;;10.58;2.40;;;;;;;17.50;57.03;96661.55;1427148;100;25769;-79
2022/06/20 03:44:54;;;;;;;5.42;3.20;;;;;;;17.55;56.95;96658.80;1427384;100;25926;-78
2022/06/20 03:47:25;;;;;;;2.42;2.10;;;;;;;17.61;57.03;96661.27;1425306;100;25975;-77
2022/06/20 03:50:03;;;;;;;6.17;3.27;;;;;;;17.69;56.90;96657.73;1381142;103;27537;-78
2022/06/20 03:52:50;;;;;;;5.80;2.62;;;;;;;17.87;56.76;96649.78;1377376;102;26614;-81
2022/06/20 03:55:34;;;;;;;5.53;2.50;;;;;;;18.02;56.62;96660.41;1347812;104;26688;-82
2022/06/20 03:58:14;;;;;;;4.42;2.90;;;;;;;18.11;56.61;96654.67;1305000;108;26038;-81
2022/06/20 04:01:03;;;;;;;5.78;2.45;;;;;;;18.19;56.76;96647.27;1337459;106;26028;-80
2022/06/20 04:03:47;;;;;;;3.22;2.70;;;;;;;18.34;56.47;96654.87;1342368;106;27518;-79
2022/06/20 04:06:29;;;;;;;5.10;2.55;;;;;;;18.47;56.12;96654.00;1401914;100;25928;-78
2022/06/20 04:12:06;;;;;;;6.30;2.83;;;;;;;18.68;55.79;96645.45;1404350;101;25635;-79
2022/06/20 04:14:47;;;;;;;6.70;3.12;;;;;;;18.78;55.64;96652.78;1407991;96;25922;-79
2022/06/20 04:20:49;;;;;;;18.37;14.03;;;;;;;18.97;55.14;96651.02;1405894;101;26040;-78
2022/06/20 04:23:21;;;;;;;19.45;10.05;;;;;;;19.10;55.01;96655.04;1363054;104;26668;-78
2022/06/20 04:25:53;;;;;;;7.60;4.70;;;;;;;19.18;54.78;96650.36;1363118;103;26014;-78
2022/06/20 04:28:40;;;;;;;6.97;3.92;;;;;;;19.27;54.56;96645.09;1344514;105;33304;-79
2022/06/20 04:31:40;;;;;;;4.60;3.27;;;;;;;19.36;54.36;96650.20;1367328;102;27706;-78
2022/06/20 04:34:26;;;;;;;5.05;2.67;;;;;;;19.43;54.25;96649.34;1356474;103;26750;-79
2022/06/20 04:37:10;;;;;;;3.33;2.70;;;;;;;19.48;54.37;96654.77;1342675;104;26235;-79
2022/06/20 04:39:51;;;;;;;6.37;2.83;;;;;;;19.53;54.31;96653.95;1351973;104;25898;-77
2022/06/20 04:42:37;;;;;;;4.83;2.50;;;;;;;19.57;54.21;96648.96;1346856;105;25824;-77
2022/06/20 04:45:12;;;;;;;6.37;3.22;;;;;;;19.64;53.95;96654.94;1315164;107;28541;-77
2022/06/20 04:47:59;;;;;;;6.47;2.80;;;;;;;19.73;54.02;96668.82;1346784;104;26083;-77
2022/06/20 04:50:28;;;;;;;5.78;2.75;;;;;;;19.79;54.17;96658.10;1353272;104;26766;-77
2022/06/20 04:53:00;;;;;;;10.98;2.62;;;;;;;19.86;54.07;96664.59;1354602;104;25873;-80
2022/06/20 04:55:28;;;;;;;6.08;2.65;;;;;;;19.92;53.63;96663.46;1404335;99;25644;-77
2022/06/20 04:57:59;;;;;;;6.40;2.87;;;;;;;20.02;53.20;96668.83;1402955;100;28296;-78
2022/06/20 05:00:37;;;;;;;6.37;3.45;;;;;;;20.14;53.16;96678.30;1412781;99;25935;-80
2022/06/20 05:03:07;;;;;;;4.45;2.87;;;;;;;20.27;52.95;96674.05;1422670;99;25923;-79
2022/06/20 05:05:39;;;;;;;5.37;3.52;;;;;;;20.38;52.84;96671.48;1451555;97;25820;-79
2022/06/20 05:08:11;;;;;;;8.23;3.52;;;;;;;20.46;52.59;96663.98;1454452;95;25908;-78
2022/06/20 05:10:47;;;;;;;9.38;4.25;;;;;;;20.58;52.53;96662.75;1504965;93;27461;-76
2022/06/20 05:13:18;;;;;;;5.87;2.80;;;;;;;20.71;52.57;96664.78;1507703;93;25853;-78
2022/06/20 05:15:48;;;;;;;6.90;3.15;;;;;;;20.84;51.89;96659.95;1490798;91;26790;-78
2022/06/20 05:18:29;;;;;;;6.83;2.60;;;;;;;20.90;51.63;96665.61;1557429;90;25897;-77
2022/06/20 05:21:04;;;;;;;3.12;2.83;;;;;;;20.95;51.85;96666.92;1551204;91;25808;-79
2022/06/20 05:23:41;;;;;;;4.75;2.25;;;;;;;20.98;52.11;96655.37;1594727;88;27440;-78
2022/06/20 05:26:15;;;;;;;5.33;2.70;;;;;;;21.03;52.10;96662.14;1621267;86;26194;-78
2022/06/20 05:28:46;;;;;;;4.95;2.62;;;;;;;21.13;51.69;96661.98;1681277;84;25894;-78
2022/06/20 05:31:17;;;;;;;4.97;2.77;;;;;;;21.23;51.32;96669.86;1680914;84;25796;-80
2022/06/20 05:33:51;;;;;;;3.55;2.58;;;;;;;21.29;51.66;96667.29;1673989;84;26753;-78
2022/06/20 05:36:29;;;;;;;5.92;2.77;;;;;;;21.31;51.82;96654.91;1672904;84;27477;-79
2022/06/20 05:39:20;;;;;;;3.83;2.60;;;;;;;21.38;51.50;96659.45;1669695;84;25754;-80
2022/06/20 05:41:48;;;;;;;4.67;2.70;;;;;;;21.46;51.09;96675.27;1724078;80;25701;-80
2022/06/20 05:44:14;;;;;;;5.25;2.30;;;;;;;21.54;50.29;96672.39;1769172;80;25783;-78
2022/06/20 05:46:52;;;;;;;5.53;2.62;;;;;;;21.62;50.20;96670.33;1737839;80;25789;-78
2022/06/20 05:49:25;;;;;;;4.47;2.62;;;;;;;21.71;50.30;96667.17;1747414;80;28228;-78
2022/06/20 05:51:54;;;;;;;5.60;2.90;;;;;;;21.80;50.02;96663.17;1677280;85;26189;-78
2022/06/20 05:54:25;;;;;;;5.15;2.58;;;;;;;21.88;49.69;96667.41;1680753;84;25428;-78
2022/06/20 05:57:14;;;;;;;5.12;2.65;;;;;;;21.96;49.35;96659.61;1670098;84;26673;-78
2022/06/20 05:59:52;;;;;;;8.53;2.83;;;;;;;22.05;49.35;96656.45;1655611;85;25753;-77
2022/06/20 06:02:24;;;;;;;3.47;2.55;;;;;;;22.17;49.13;96652.65;1648048;85;27660;-77
2022/06/20 06:05:16;;;;;;;6.42;2.52;;;;;;;22.25;48.68;96651.38;1646282;85;35356;-77
2022/06/20 06:08:00;;;;;;;7.28;2.62;;;;;;;22.35;48.58;96654.48;1675949;84;25937;-79
2022/06/20 06:10:43;;;;;;;3.33;2.60;;;;;;;22.35;48.40;96636.61;1552944;91;25935;-78
2022/06/20 06:13:15;;;;;;;4.75;2.00;;;;;;;22.56;48.00;96652.98;1550172;91;26046;-83
2022/06/20 06:19:07;;;;;;;6.75;2.55;;;;;;;22.73;47.44;96652.89;1548959;91;25761;-81
2022/06/20 06:21:35;;;;;;;3.33;2.33;;;;;;;22.80;47.08;96647.28;1548796;91;25826;-80
2022/06/20 06:24:04;;;;;;;4.80;2.40;;;;;;;22.87;46.84;96645.48;1552733;91;26546;-79
2022/06/20 06:26:33;;;;;;;2.77;2.37;;;;;;;22.81;46.68;96624.16;1552808;91;26611;-78
2022/06/20 06:29:00;;;;;;;7.85;2.47;;;;;;;23.02;46.41;96642.39;1556176;91;27549;-79
2022/06/20 06:31:32;;;;;;;6.25;2.40;;;;;;;23.13;46.33;96627.28;1558091;91;25799;-79
2022/06/20 06:34:12;;;;;;;5.25;2.35;;;;;;;23.22;46.03;96638.36;1544213;92;32684;-85
2022/06/20 06:36:47;;;;;;;10.13;2.40;;;;;;;23.30;45.71;96637.64;1505439;94;26043;-79
2022/06/20 06:39:31;;;;;;;6.70;2.98;;;;;;;23.38;45.48;96642.39;1504491;94;26570;-82
2022/06/20 06:42:02;;;;;;;4.58;2.58;;;;;;;23.47;45.44;96636.38;1503648;94;28141;-77
2022/06/20 06:44:46;;;;;;;3.35;2.27;;;;;;;23.55;45.31;96629.33;1503739;94;26762;-79
2022/06/20 06:47:38;;;;;;;7.55;2.02;;;;;;;23.64;45.14;96631.04;1499058;95;25933;-80
2022/06/20 06:50:34;;;;;;;3.15;2.40;;;;;;;23.74;44.59;96628.59;1517078;93;25914;-78
2022/06/20 06:53:25;;;;;;;3.20;2.27;;;;;;;23.81;44.51;96627.56;1512384;94;26072;-81
2022/06/20 06:56:03;;;;;;;4.75;2.10;;;;;;;23.90;44.38;96624.31;1504146;94;27506;-78
2022/06/20 06:58:37;;;;;;;4.03;2.67;;;;;;;23.99;43.96;96619.66;1496572;94;26151;-76
2022/06/20 07:01:22;;;;;;;5.40;1.85;;;;;;;24.09;43.74;96621.89;1494253;94;25869;-78
2022/06/20 07:03:55;;;;;;;5.58;2.22;;;;;;;24.16;43.41;96620.85;1497119;94;25831;-82
2022/06/20 07:06:35;;;;;;;5.83;2.33;;;;;;;24.25;43.23;96612.11;1538556;91;27283;-79
2022/06/20 07:09:22;;;;;;;4.70;2.35;;;;;;;24.35;42.79;96611.82;1535603;91;27462;-80
2022/06/20 07:12:22;;;;;;;10.38;2.58;;;;;;;24.47;42.85;96598.80;1558135;91;26029;-77
2022/06/20 07:15:03;;;;;;;4.90;2.55;;;;;;;24.56;42.66;96596.87;1537694;91;25911;-79
2022/06/20 07:17:40;;;;;;;3.17;2.33;;;;;;;24.65;42.46;96592.99;1522846;93;26600;-78
2022/06/20 07:20:09;;;;;;;7.47;2.33;;;;;;;24.71;42.38;96593.10;1494589;94;25905;-78
2022/06/20 07:22:39;;;;;;;3.05;2.22;;;;;;;24.83;42.33;96598.56;1492151;95;27599;-79
2022/06/20 07:25:09;;;;;;;3.37;2.37;;;;;;;24.94;42.14;96588.86;1487786;94;25966;-78
2022/06/20 07:27:55;;;;;;;9.20;2.83;;;;;;;25.04;41.96;96574.73;1491728;95;25949;-80
2022/06/20 07:30:32;;;;;;;9.30;2.20;;;;;;;25.13;41.62;96579.69;1471757;94;25957;-77
2022/06/20 07:33:09;;;;;;;4.97;2.33;;;;;;;25.24;41.29;96583.73;1512627;91;25993;-77
2022/06/20 07:35:44;;;;;;;8.35;2.52;;;;;;;25.34;41.08;96586.20;1530844;92;27534;-79
2022/06/20 07:38:28;;;;;;;2.98;2.22;;;;;;;25.47;40.74;96583.84;1504808;93;25596;-79
2022/06/20 07:41:00;;;;;;;4.55;2.30;;;;;;;25.60;40.67;96577.08;1534700;93;25837;-80
2022/06/20 07:43:38;;;;;;;6.87;2.65;;;;;;;25.73;40.45;96581.03;1533163;91;25964;-78
2022/06/20 07:46:12;;;;;;;7.10;2.58;;;;;;;25.84;40.09;96582.91;1560293;90;25551;-79
2022/06/20 07:48:43;;;;;;;3.65;2.58;;;;;;;25.89;39.70;96575.80;1557759;90;27518;-79
2022/06/20 07:51:17;;;;;;;7.83;2.42;;;;;;;25.99;39.83;96583.73;1559035;90;25890;-79
2022/06/20 07:53:58;;;;;;;7.15;2.35;;;;;;;26.12;39.72;96573.03;1555522;90;25960;-79
2022/06/20 07:56:46;;;;;;;6.50;2.55;;;;;;;26.27;39.34;96575.02;1556604;91;26012;-78
2022/06/20 07:59:21;;;;;;;6.65;2.47;;;;;;;26.39;38.78;96571.00;1567314;91;26638;-80
2022/06/20 08:01:58;;;;;;;9.25;2.80;;;;;;;26.59;38.57;96565.27;1563553;90;27511;-78
2022/06/20 08:04:30;;;;;;;7.92;2.37;;;;;;;26.87;38.19;96556.14;1561450;91;25755;-82
2022/06/20 08:07:16;;;;;;;7.28;2.25;;;;;;;27.32;38.52;96550.50;1524016;92;25963;-80
2022/06/20 08:10:00;;;;;;;6.08;2.37;;;;;;;27.77;37.74;96547.83;1506011;94;27464;-78
2022/06/20 08:12:37;;;;;;;5.10;2.45;;;;;;;28.26;37.20;96543.16;1477679;95;25985;-78
2022/06/20 08:15:31;;;;;;;7.45;2.30;;;;;;;28.65;36.16;96545.24;1469839;94;27686;-81
2022/06/20 08:17:59;;;;;;;6.58;2.35;;;;;;;28.97;35.73;96537.95;1456677;96;25919;-79
2022/06/20 08:20:30;;;;;;;8.20;2.60;;;;;;;29.30;35.28;96532.16;1456686;97;26004;-79
2022/06/20 08:23:02;;;;;;;5.65;2.42;;;;;;;29.63;35.08;96531.92;1459514;95;26106;-80
2022/06/20 08:25:41;;;;;;;;;;;;;;;29.95;34.72;96528.59;1514324;94;25661;-79
2022/06/20 08:28:40;;;;;;;6.45;2.17;;;;;;;30.25;33.76;96520.66;1478569;96;27447;-80
2022/06/20 08:31:24;;;;;;;5.28;2.15;;;;;;;30.43;33.74;96509.35;1377738;102;25374;-77
2022/06/20 08:33:56;;;;;;;5.67;2.60;;;;;;;30.67;33.21;96505.56;1409091;100;25447;-79
2022/06/20 08:36:31;;;;;;;7.17;2.15;;;;;;;30.98;32.85;96503.28;1369614;102;26204;-79
2022/06/20 08:39:21;;;;;;;11.12;2.33;;;;;;;31.26;32.44;96496.73;1393699;101;25850;-80
2022/06/20 08:42:17;;;;;;;6.17;2.50;;;;;;;31.55;32.18;96496.69;1393407;100;28418;-80
2022/06/20 08:45:24;;;;;;;6.55;2.20;;;;;;;31.95;31.68;96498.48;1399238;99;25891;-77
2022/06/20 08:48:12;;;;;;;6.95;2.08;;;;;;;32.36;31.37;96491.24;1426692;100;25951;-78
2022/06/20 08:51:26;;;;;;;6.70;2.30;;;;;;;32.76;30.89;96471.69;1423043;99;25835;-80
2022/06/20 08:54:24;;;;;;;6.72;2.55;;;;;;;32.98;30.04;96472.78;1418386;99;25959;-78
2022/06/20 08:56:59;;;;;;;8.43;2.47;;;;;;;33.36;29.64;96471.69;1420250;99;27543;-81
2022/06/20 08:59:58;;;;;;;6.17;2.10;;;;;;;33.60;28.83;96464.17;1322963;105;25885;-78
2022/06/20 09:02:59;;;;;;;4.50;2.40;;;;;;;33.91;28.67;96458.73;1334297;106;26105;-78
2022/06/20 09:05:37;;;;;;;6.50;2.37;;;;;;;34.24;28.74;96452.20;1293491;109;25966;-80
2022/06/20 09:08:30;;;;;;;4.90;2.40;;;;;;;34.59;28.58;96446.08;1291270;109;25978;-81
2022/06/20 09:11:28;;;;;;;6.80;2.37;;;;;;;34.83;28.21;96434.84;1273074;108;28255;-78
2022/06/20 09:14:18;;;;;;;6.80;2.15;;;;;;;35.18;28.04;96437.80;1279475;110;26113;-79
2022/06/20 09:17:20;;;;;;;7.00;2.72;;;;;;;35.48;27.32;96426.91;1289372;109;26035;-79
2022/06/20 09:20:04;;;;;;;5.25;2.58;;;;;;;35.64;26.94;96423.12;1286060;108;25995;-81
2022/06/20 09:23:12;;;;;;;5.87;2.10;;;;;;;35.86;26.63;96422.00;1280884;109;25970;-80
2022/06/20 09:25:59;;;;;;;8.88;2.40;;;;;;;36.06;25.85;96418.98;1303805;107;27680;-78
2022/06/20 09:28:45;;;;;;;9.58;2.62;;;;;;;36.30;25.21;96416.59;1307691;107;27184;-79
2022/06/20 09:31:20;;;;;;;5.12;2.40;;;;;;;36.46;25.22;96407.16;1291803;109;26026;-79
2022/06/20 09:34:03;;;;;;;5.60;2.22;;;;;;;36.55;25.31;96397.69;1302134;108;25977;-79
2022/06/20 09:36:58;;;;;;;8.00;2.62;;;;;;;36.52;24.94;96394.88;1303207;109;25940;-79
2022/06/20 09:40:03;;;;;;;11.43;2.75;;;;;;;36.53;24.94;96391.67;1289383;110;28295;-78
2022/06/20 09:42:44;;;;;;;13.15;2.55;;;;;;;36.44;24.37;96379.45;1302883;108;25903;-78
2022/06/20 09:45:57;;;;;;;9.20;2.42;;;;;;;36.38;24.37;96373.23;1326238;107;25875;-79
2022/06/20 09:49:18;;;;;;;9.95;2.85;;;;;;;36.44;24.42;96367.41;1274869;111;25904;-79
2022/06/20 09:51:59;;;;;;;9.28;2.37;;;;;;;36.38;24.23;96357.77;1321875;106;26121;-79
2022/06/20 09:54:49;;;;;;;6.80;2.30;;;;;;;36.55;23.84;96347.09;1303920;108;27600;-80
2022/06/20 09:57:38;;;;;;;9.68;2.30;;;;;;;36.69;23.76;96343.44;1360321;103;26013;-79
2022/06/20 10:00:22;;;;;;;5.87;2.35;;;;;;;36.73;24.04;96342.23;1414189;98;25837;-79
2022/06/20 10:03:00;;;;;;;6.67;2.20;;;;;;;36.87;23.34;96340.57;1443695;95;25882;-79
2022/06/20 10:05:53;;;;;;;10.43;2.90;;;;;;;36.77;23.75;96334.59;1548077;92;25821;-78
2022/06/20 10:08:54;;;;;;;8.55;2.45;;;;;;;36.85;23.87;96328.92;1549042;91;27412;-79
2022/06/20 10:11:26;;;;;;;8.55;2.20;;;;;;;36.84;23.52;96326.72;1547797;92;25850;-79
2022/06/20 10:14:19;;;;;;;7.30;2.30;;;;;;;36.90;24.46;96312.44;1548131;92;25813;-80
2022/06/20 10:16:57;;;;;;;7.50;2.30;;;;;;;37.02;24.19;96306.95;1504885;93;25906;-80
2022/06/20 10:19:53;;;;;;;6.00;2.37;;;;;;;37.19;24.59;96308.91;1520983;92;25970;-78
2022/06/20 10:22:31;;;;;;;9.45;2.47;;;;;;;37.20;24.14;96300.63;1538452;90;27549;-79
2022/06/20 10:25:09;;;;;;;8.85;2.37;;;;;;;37.31;24.27;96302.80;1495828;93;26078;-79
2022/06/20 10:27:56;;;;;;;9.58;2.62;;;;;;;37.44;24.06;96300.27;1494079;93;25891;-76
2022/06/20 10:30:55;;;;;;;9.98;2.65;;;;;;;37.38;23.13;96298.52;1498330;93;25994;-78
2022/06/20 10:33:52;;;;;;;6.40;2.08;;;;;;;37.32;23.08;96294.52;1512265;94;25587;-81
2022/06/20 10:36:34;;;;;;;9.48;2.72;;;;;;;37.35;23.47;96301.34;1512588;93;28260;-79
2022/06/20 10:39:18;;;;;;;10.55;3.42;;;;;;;37.46;23.07;96300.05;1479344;95;25485;-81
2022/06/20 10:41:59;;;;;;;14.30;3.00;;;;;;;37.50;23.66;96297.22;1470108;93;26197;-81
2022/06/20 10:44:43;;;;;;;5.37;2.47;;;;;;;37.57;23.48;96299.16;1483219;95;26430;-81
2022/06/20 10:47:32;;;;;;;7.55;2.50;;;;;;;37.65;22.75;96296.53;1440297;97;25982;-80
2022/06/20 10:50:22;;;;;;;10.10;2.70;;;;;;;37.58;22.12;96295.14;1442762;98;27483;-79
2022/06/20 10:53:20;;;;;;;10.95;2.80;;;;;;;37.58;22.42;96292.33;1437822;98;25969;-79
2022/06/20 10:56:09;;;;;;;8.60;2.47;;;;;;;37.72;22.30;96290.23;1435145;97;26011;-81
2022/06/20 10:58:59;;;;;;;9.60;2.77;;;;;;;37.84;21.73;96294.55;1441125;97;25968;-77
2022/06/20 11:02:05;;;;;;;8.58;2.92;;;;;;;37.82;21.34;96296.37;1438793;98;25970;-77
2022/06/20 11:05:01;;;;;;;11.60;2.60;;;;;;;37.85;21.55;96301.17;1446433;97;27539;-78
2022/06/20 11:07:51;;;;;;;11.25;3.08;;;;;;;37.70;21.53;96303.11;1476010;95;26017;-79
2022/06/20 11:10:38;;;;;;;10.23;2.80;;;;;;;37.52;21.52;96310.28;1469227;93;25954;-79
2022/06/20 11:13:30;;;;;;;9.33;2.50;;;;;;;37.48;21.35;96317.33;1491806;94;26568;-77
2022/06/20 11:16:17;;;;;;;10.23;2.33;;;;;;;37.53;21.58;96326.56;1496117;92;25902;-80
2022/06/20 11:18:52;;;;;;;6.97;2.10;;;;;;;37.56;20.93;96316.66;1528020;92;27650;-79
2022/06/20 11:21:42;;;;;;;7.85;2.42;;;;;;;37.41;20.89;96313.17;1544727;88;26022;-80
2022/06/20 11:24:25;;;;;;;8.05;2.20;;;;;;;37.42;20.78;96317.59;1624652;85;25966;-79
2022/06/20 11:27:16;;;;;;;6.85;2.33;;;;;;;37.44;20.88;96323.59;1667022;84;25671;-84
2022/06/20 11:29:59;;;;;;;9.05;2.33;;;;;;;37.43;21.34;96331.86;1669132;84;25682;-82
2022/06/20 11:32:38;;;;;;;12.05;2.20;;;;;;;37.49;21.00;96329.39;1673085;83;28282;-83
2022/06/20 11:35:49;;;;;;;12.78;2.47;;;;;;;37.55;20.93;96326.95;1666567;83;25977;-83
2022/06/20 11:38:46;;;;;;;10.95;2.58;;;;;;;37.61;21.44;96322.47;1672947;83;25872;-78
2022/06/20 11:41:33;;;;;;;5.55;2.50;;;;;;;37.69;21.35;96340.92;1729950;80;26502;-80
2022/06/20 11:44:16;;;;;;;3.85;2.12;;;;;;;37.77;21.14;96338.27;1767312;81;25773;-81
2022/06/20 11:47:17;;;;;;;7.22;2.30;;;;;;;37.78;21.65;96325.79;1747718;80;28314;-82
2022/06/20 11:50:23;;;;;;;10.00;2.62;;;;;;;37.85;21.38;96322.91;1748233;80;25689;-82
2022/06/20 11:52:58;;;;;;;6.45;2.50;;;;;;;37.83;21.40;96326.73;1608132;88;25847;-81
2022/06/20 11:55:46;;;;;;;8.88;2.70;;;;;;;37.77;21.64;96319.36;1603080;88;25902;-79
2022/06/20 11:58:33;;;;;;;9.43;2.55;;;;;;;37.78;21.51;96320.96;1604028;88;25948;-81
2022/06/20 12:01:09;;;;;;;8.78;2.40;;;;;;;37.86;21.32;96320.28;1619353;88;27498;-78
2022/06/20 12:03:46;;;;;;;9.60;2.00;;;;;;;37.94;20.55;96309.73;1611319;88;25802;-80
2022/06/20 12:06:26;;;;;;;7.62;2.15;;;;;;;38.03;20.53;96308.06;1619087;88;25960;-78
2022/06/20 12:09:07;;;;;;;8.38;2.02;;;;;;;38.10;20.35;96307.20;1604287;88;26737;-80
2022/06/20 12:11:51;;;;;;;5.00;2.27;;;;;;;38.06;19.65;96302.98;1603656;88;26582;-80
2022/06/20 12:15:00;;;;;;;8.68;2.25;;;;;;;38.07;19.72;96299.55;1618000;88;27602;-82
2022/06/20 12:17:56;;;;;;;10.50;2.37;;;;;;;38.14;19.46;96294.70;1597932;88;26369;-80
2022/06/20 12:23:41;;;;;;;10.78;2.10;;;;;;;38.07;19.10;96296.13;1602470;88;26536;-79
2022/06/20 12:26:13;;;;;;;9.23;2.62;;;;;;;37.88;19.08;96288.28;1601299;88;27273;-81
2022/06/20 12:28:47;;;;;;;6.90;2.10;;;;;;;37.90;19.08;96287.87;1583835;90;28334;-80
2022/06/20 12:31:22;;;;;;;9.03;2.42;;;;;;;37.87;19.03;96285.88;1562831;90;25829;-81
2022/06/20 12:33:59;;;;;;;7.20;2.90;;;;;;;37.71;19.33;96289.23;1558144;91;25897;-81
2022/06/20 12:36:37;;;;;;;6.92;2.70;;;;;;;37.57;19.31;96278.85;1555815;90;26082;-80
2022/06/20 12:39:15;;;;;;;9.60;2.75;;;;;;;37.41;19.47;96265.33;1547303;88;25791;-79
2022/06/20 12:41:58;;;;;;;11.08;2.77;;;;;;;37.32;19.82;96270.60;1519378;92;27518;-78
2022/06/20 12:44:59;;;;;;;8.38;2.98;;;;;;;37.28;19.92;96271.86;1520991;94;26047;-79
2022/06/20 12:48:19;;;;;;;12.53;2.40;;;;;;;37.21;20.05;96281.14;1512419;93;25752;-80
2022/06/20 12:51:05;;;;;;;12.03;3.83;;;;;;;37.06;20.12;96290.87;1498583;93;25920;-79